Terminal Aerodrome Forecast
Issued by NWS

Home | Current Version | Previous Version | Text Only | Print | Product List | Glossary On
Versions: 1 2 3 4 5 6 7 8 9 10 11 12 13 14 15 16 17 18 19 20
000
FTUS46 KMFR 071145
TAFLMT
TAF
KLMT 071145Z 0712/0812 VRB04KT P6SM SCT120
     FM072000 VRB04KT P6SM VCSH SCT070 SCT120
     FM072200 30007KT P6SM VCTS SCT070CB BKN120
     FM080300 VRB04KT P6SM -SHRA SCT070 BKN100=

USA.gov is the U.S. government's official web portal to all federal, state and local government web resources and services.